sensor_id;sensor_type;location;lat;lon;timestamp;P1;durP1;ratioP1;P2;durP2;ratioP2
25449;SDS011;13371;52.080;5.624;2022-12-05T00:01:32;55.35;;;25.40;;
25449;SDS011;13371;52.080;5.624;2022-12-05T00:03:59;51.00;;;24.42;;
25449;SDS011;13371;52.080;5.624;2022-12-05T00:06:28;54.10;;;23.60;;
25449;SDS011;13371;52.080;5.624;2022-12-05T00:08:54;58.60;;;24.60;;
25449;SDS011;13371;52.080;5.624;2022-12-05T00:11:21;51.25;;;24.40;;
25449;SDS011;13371;52.080;5.624;2022-12-05T00:13:49;52.88;;;24.13;;
25449;SDS011;13371;52.080;5.624;2022-12-05T00:16:17;56.42;;;25.13;;
25449;SDS011;13371;52.080;5.624;2022-12-05T00:18:44;52.47;;;25.80;;
25449;SDS011;13371;52.080;5.624;2022-12-05T00:21:11;54.85;;;25.30;;
25449;SDS011;13371;52.080;5.624;2022-12-05T00:23:38;58.85;;;26.17;;
25449;SDS011;13371;52.080;5.624;2022-12-05T00:26:05;55.88;;;24.65;;
25449;SDS011;13371;52.080;5.624;2022-12-05T00:28:31;53.83;;;25.10;;
25449;SDS011;13371;52.080;5.624;2022-12-05T00:31:00;54.83;;;24.75;;
25449;SDS011;13371;52.080;5.624;2022-12-05T00:33:30;53.15;;;24.63;;
25449;SDS011;13371;52.080;5.624;2022-12-05T00:36:00;57.42;;;24.08;;
25449;SDS011;13371;52.080;5.624;2022-12-05T00:38:27;59.40;;;24.10;;
25449;SDS011;13371;52.080;5.624;2022-12-05T00:40:53;46.65;;;22.52;;
25449;SDS011;13371;52.080;5.624;2022-12-05T00:43:18;53.25;;;23.92;;
25449;SDS011;13371;52.080;5.624;2022-12-05T00:45:44;49.05;;;23.20;;
25449;SDS011;13371;52.080;5.624;2022-12-05T00:48:09;52.40;;;24.58;;
25449;SDS011;13371;52.080;5.624;2022-12-05T00:50:35;54.17;;;24.65;;
25449;SDS011;13371;52.080;5.624;2022-12-05T00:53:00;52.28;;;23.40;;
25449;SDS011;13371;52.080;5.624;2022-12-05T00:55:26;53.55;;;23.05;;
25449;SDS011;13371;52.080;5.624;2022-12-05T00:57:51;51.20;;;23.33;;
25449;SDS011;13371;52.080;5.624;2022-12-05T01:00:17;54.30;;;26.52;;
25449;SDS011;13371;52.080;5.624;2022-12-05T01:02:43;54.72;;;24.17;;
25449;SDS011;13371;52.080;5.624;2022-12-05T01:05:09;54.20;;;23.45;;
25449;SDS011;13371;52.080;5.624;2022-12-05T01:07:34;54.10;;;24.15;;
25449;SDS011;13371;52.080;5.624;2022-12-05T01:10:00;50.97;;;23.52;;
25449;SDS011;13371;52.080;5.624;2022-12-05T01:12:25;47.70;;;23.17;;
25449;SDS011;13371;52.080;5.624;2022-12-05T01:14:52;58.10;;;24.33;;
25449;SDS011;13371;52.080;5.624;2022-12-05T01:17:17;47.92;;;22.90;;
25449;SDS011;13371;52.080;5.624;2022-12-05T01:19:43;51.47;;;23.77;;
25449;SDS011;13371;52.080;5.624;2022-12-05T01:22:08;51.17;;;24.02;;
25449;SDS011;13371;52.080;5.624;2022-12-05T01:24:34;48.45;;;23.00;;
25449;SDS011;13371;52.080;5.624;2022-12-05T01:27:00;55.88;;;24.48;;
25449;SDS011;13371;52.080;5.624;2022-12-05T01:29:25;54.13;;;24.77;;
25449;SDS011;13371;52.080;5.624;2022-12-05T01:31:52;51.70;;;24.30;;
25449;SDS011;13371;52.080;5.624;2022-12-05T01:34:18;52.10;;;22.88;;
25449;SDS011;13371;52.080;5.624;2022-12-05T01:36:44;47.45;;;23.92;;
25449;SDS011;13371;52.080;5.624;2022-12-05T01:39:11;48.88;;;24.17;;
25449;SDS011;13371;52.080;5.624;2022-12-05T01:41:39;53.45;;;24.75;;
25449;SDS011;13371;52.080;5.624;2022-12-05T01:46:36;52.25;;;24.00;;
25449;SDS011;13371;52.080;5.624;2022-12-05T01:49:43;50.17;;;23.13;;
25449;SDS011;13371;52.080;5.624;2022-12-05T01:52:15;52.75;;;23.67;;
25449;SDS011;13371;52.080;5.624;2022-12-05T01:54:44;45.63;;;22.65;;
25449;SDS011;13371;52.080;5.624;2022-12-05T01:57:11;47.55;;;22.52;;
25449;SDS011;13371;52.080;5.624;2022-12-05T01:59:41;50.17;;;23.13;;
25449;SDS011;13371;52.080;5.624;2022-12-05T02:02:10;45.00;;;22.13;;
25449;SDS011;13371;52.080;5.624;2022-12-05T02:04:37;46.92;;;22.95;;
25449;SDS011;13371;52.080;5.624;2022-12-05T02:07:16;49.45;;;23.23;;
25449;SDS011;13371;52.080;5.624;2022-12-05T02:09:43;48.05;;;23.38;;
25449;SDS011;13371;52.080;5.624;2022-12-05T02:12:10;46.78;;;22.20;;
25449;SDS011;13371;52.080;5.624;2022-12-05T02:17:29;47.25;;;23.55;;
25449;SDS011;13371;52.080;5.624;2022-12-05T02:26:02;46.70;;;23.08;;
25449;SDS011;13371;52.080;5.624;2022-12-05T02:32:05;44.00;;;22.90;;
25449;SDS011;13371;52.080;5.624;2022-12-05T02:43:28;50.70;;;23.48;;
25449;SDS011;13371;52.080;5.624;2022-12-05T02:45:59;47.63;;;22.83;;
25449;SDS011;13371;52.080;5.624;2022-12-05T02:48:30;50.28;;;22.58;;
25449;SDS011;13371;52.080;5.624;2022-12-05T02:50:58;53.30;;;24.45;;
25449;SDS011;13371;52.080;5.624;2022-12-05T02:53:26;47.05;;;22.63;;
25449;SDS011;13371;52.080;5.624;2022-12-05T02:55:54;52.78;;;24.35;;
25449;SDS011;13371;52.080;5.624;2022-12-05T02:58:22;45.00;;;21.85;;
25449;SDS011;13371;52.080;5.624;2022-12-05T03:01:09;51.58;;;23.73;;
25449;SDS011;13371;52.080;5.624;2022-12-05T03:03:35;49.58;;;22.80;;
25449;SDS011;13371;52.080;5.624;2022-12-05T03:06:03;48.97;;;22.58;;
25449;SDS011;13371;52.080;5.624;2022-12-05T03:08:49;51.10;;;23.65;;
25449;SDS011;13371;52.080;5.624;2022-12-05T03:11:19;52.00;;;21.98;;
25449;SDS011;13371;52.080;5.624;2022-12-05T03:13:48;50.25;;;23.33;;
25449;SDS011;13371;52.080;5.624;2022-12-05T03:16:20;45.80;;;22.50;;
25449;SDS011;13371;52.080;5.624;2022-12-05T03:18:55;47.83;;;22.40;;
25449;SDS011;13371;52.080;5.624;2022-12-05T03:21:30;48.45;;;22.38;;
25449;SDS011;13371;52.080;5.624;2022-12-05T03:24:10;41.92;;;21.73;;
25449;SDS011;13371;52.080;5.624;2022-12-05T03:32:02;47.85;;;22.33;;
25449;SDS011;13371;52.080;5.624;2022-12-05T03:34:48;46.80;;;21.55;;
25449;SDS011;13371;52.080;5.624;2022-12-05T03:42:55;45.17;;;20.50;;
25449;SDS011;13371;52.080;5.624;2022-12-05T03:46:17;42.70;;;20.02;;
25449;SDS011;13371;52.080;5.624;2022-12-05T03:51:11;45.40;;;22.38;;
25449;SDS011;13371;52.080;5.624;2022-12-05T03:53:41;43.00;;;20.17;;
25449;SDS011;13371;52.080;5.624;2022-12-05T03:56:28;50.30;;;22.23;;
25449;SDS011;13371;52.080;5.624;2022-12-05T04:01:36;40.22;;;19.92;;
25449;SDS011;13371;52.080;5.624;2022-12-05T04:04:07;39.65;;;19.85;;
25449;SDS011;13371;52.080;5.624;2022-12-05T04:06:42;42.00;;;19.83;;
25449;SDS011;13371;52.080;5.624;2022-12-05T04:09:11;43.35;;;20.20;;
25449;SDS011;13371;52.080;5.624;2022-12-05T04:11:47;42.08;;;20.40;;
25449;SDS011;13371;52.080;5.624;2022-12-05T04:14:23;37.88;;;19.92;;
25449;SDS011;13371;52.080;5.624;2022-12-05T04:16:55;42.72;;;21.02;;
25449;SDS011;13371;52.080;5.624;2022-12-05T04:19:36;40.50;;;19.48;;
25449;SDS011;13371;52.080;5.624;2022-12-05T04:22:22;43.85;;;21.55;;
25449;SDS011;13371;52.080;5.624;2022-12-05T04:24:49;42.95;;;20.10;;
25449;SDS011;13371;52.080;5.624;2022-12-05T04:27:43;44.35;;;21.55;;
25449;SDS011;13371;52.080;5.624;2022-12-05T04:30:19;40.17;;;20.33;;
25449;SDS011;13371;52.080;5.624;2022-12-05T04:35:40;45.60;;;22.45;;
25449;SDS011;13371;52.080;5.624;2022-12-05T04:38:34;40.85;;;20.60;;
25449;SDS011;13371;52.080;5.624;2022-12-05T04:41:14;47.47;;;21.63;;
25449;SDS011;13371;52.080;5.624;2022-12-05T04:43:44;44.28;;;21.52;;
25449;SDS011;13371;52.080;5.624;2022-12-05T04:46:13;41.80;;;21.02;;
25449;SDS011;13371;52.080;5.624;2022-12-05T04:48:41;38.90;;;19.23;;
25449;SDS011;13371;52.080;5.624;2022-12-05T04:51:14;43.90;;;21.40;;
25449;SDS011;13371;52.080;5.624;2022-12-05T04:53:42;44.00;;;21.00;;
25449;SDS011;13371;52.080;5.624;2022-12-05T04:56:10;38.47;;;20.73;;
25449;SDS011;13371;52.080;5.624;2022-12-05T04:58:38;39.22;;;20.33;;
25449;SDS011;13371;52.080;5.624;2022-12-05T05:01:13;38.55;;;19.83;;
25449;SDS011;13371;52.080;5.624;2022-12-05T05:04:15;41.60;;;20.58;;
25449;SDS011;13371;52.080;5.624;2022-12-05T05:06:45;43.47;;;20.77;;
25449;SDS011;13371;52.080;5.624;2022-12-05T05:09:10;44.45;;;21.08;;
25449;SDS011;13371;52.080;5.624;2022-12-05T05:11:36;38.75;;;20.33;;
25449;SDS011;13371;52.080;5.624;2022-12-05T05:14:01;41.20;;;20.00;;
25449;SDS011;13371;52.080;5.624;2022-12-05T05:16:29;40.78;;;19.52;;
25449;SDS011;13371;52.080;5.624;2022-12-05T05:18:55;40.08;;;20.83;;
25449;SDS011;13371;52.080;5.624;2022-12-05T05:21:31;40.53;;;20.33;;
25449;SDS011;13371;52.080;5.624;2022-12-05T05:23:58;40.00;;;20.95;;
25449;SDS011;13371;52.080;5.624;2022-12-05T05:26:24;44.80;;;21.65;;
25449;SDS011;13371;52.080;5.624;2022-12-05T05:28:51;38.83;;;19.75;;
25449;SDS011;13371;52.080;5.624;2022-12-05T05:31:18;42.28;;;20.63;;
25449;SDS011;13371;52.080;5.624;2022-12-05T05:33:47;37.80;;;20.23;;
25449;SDS011;13371;52.080;5.624;2022-12-05T05:36:13;40.78;;;21.52;;
25449;SDS011;13371;52.080;5.624;2022-12-05T05:38:40;42.70;;;20.95;;
25449;SDS011;13371;52.080;5.624;2022-12-05T05:41:14;40.63;;;20.63;;
25449;SDS011;13371;52.080;5.624;2022-12-05T05:43:42;41.80;;;19.95;;
25449;SDS011;13371;52.080;5.624;2022-12-05T05:46:08;40.15;;;20.50;;
25449;SDS011;13371;52.080;5.624;2022-12-05T05:48:34;38.00;;;20.52;;
25449;SDS011;13371;52.080;5.624;2022-12-05T05:51:00;44.15;;;20.90;;
25449;SDS011;13371;52.080;5.624;2022-12-05T05:53:27;36.85;;;19.75;;
25449;SDS011;13371;52.080;5.624;2022-12-05T05:55:52;40.08;;;20.02;;
25449;SDS011;13371;52.080;5.624;2022-12-05T05:58:18;37.97;;;18.75;;
25449;SDS011;13371;52.080;5.624;2022-12-05T06:00:44;40.33;;;19.90;;
25449;SDS011;13371;52.080;5.624;2022-12-05T06:03:10;39.40;;;20.42;;
25449;SDS011;13371;52.080;5.624;2022-12-05T06:05:35;39.78;;;20.90;;
25449;SDS011;13371;52.080;5.624;2022-12-05T06:08:01;36.35;;;19.17;;
25449;SDS011;13371;52.080;5.624;2022-12-05T06:10:27;35.88;;;18.95;;
25449;SDS011;13371;52.080;5.624;2022-12-05T06:12:56;36.33;;;19.17;;
25449;SDS011;13371;52.080;5.624;2022-12-05T06:15:22;40.83;;;20.77;;
25449;SDS011;13371;52.080;5.624;2022-12-05T06:17:48;36.25;;;18.02;;
25449;SDS011;13371;52.080;5.624;2022-12-05T06:20:14;38.75;;;19.92;;
25449;SDS011;13371;52.080;5.624;2022-12-05T06:22:39;35.90;;;18.75;;
25449;SDS011;13371;52.080;5.624;2022-12-05T06:25:06;34.60;;;17.58;;
25449;SDS011;13371;52.080;5.624;2022-12-05T06:27:32;35.42;;;18.98;;
25449;SDS011;13371;52.080;5.624;2022-12-05T06:29:58;37.67;;;18.77;;
25449;SDS011;13371;52.080;5.624;2022-12-05T06:32:24;39.42;;;20.30;;
25449;SDS011;13371;52.080;5.624;2022-12-05T06:34:51;36.67;;;19.02;;
25449;SDS011;13371;52.080;5.624;2022-12-05T06:37:17;41.80;;;18.42;;
25449;SDS011;13371;52.080;5.624;2022-12-05T06:39:42;38.67;;;19.77;;
25449;SDS011;13371;52.080;5.624;2022-12-05T06:42:08;35.92;;;18.23;;
25449;SDS011;13371;52.080;5.624;2022-12-05T06:44:33;41.42;;;20.15;;
25449;SDS011;13371;52.080;5.624;2022-12-05T06:46:59;37.08;;;18.92;;
25449;SDS011;13371;52.080;5.624;2022-12-05T06:49:24;37.88;;;19.25;;
25449;SDS011;13371;52.080;5.624;2022-12-05T06:51:56;34.95;;;17.73;;
25449;SDS011;13371;52.080;5.624;2022-12-05T06:54:22;39.47;;;20.40;;
25449;SDS011;13371;52.080;5.624;2022-12-05T06:56:48;40.08;;;20.50;;
25449;SDS011;13371;52.080;5.624;2022-12-05T06:59:13;39.80;;;19.77;;
25449;SDS011;13371;52.080;5.624;2022-12-05T07:01:39;37.70;;;19.63;;
25449;SDS011;13371;52.080;5.624;2022-12-05T07:06:38;35.80;;;19.67;;
25449;SDS011;13371;52.080;5.624;2022-12-05T07:09:04;41.33;;;20.15;;
25449;SDS011;13371;52.080;5.624;2022-12-05T07:11:30;43.30;;;19.50;;
25449;SDS011;13371;52.080;5.624;2022-12-05T07:13:56;41.70;;;20.83;;
25449;SDS011;13371;52.080;5.624;2022-12-05T07:16:22;38.85;;;20.65;;
25449;SDS011;13371;52.080;5.624;2022-12-05T07:18:47;37.85;;;19.67;;
25449;SDS011;13371;52.080;5.624;2022-12-05T07:21:14;41.17;;;20.77;;
25449;SDS011;13371;52.080;5.624;2022-12-05T07:23:41;39.92;;;19.75;;
25449;SDS011;13371;52.080;5.624;2022-12-05T07:26:08;37.33;;;18.90;;
25449;SDS011;13371;52.080;5.624;2022-12-05T07:28:39;38.22;;;19.83;;
25449;SDS011;13371;52.080;5.624;2022-12-05T07:31:05;36.13;;;19.42;;
25449;SDS011;13371;52.080;5.624;2022-12-05T07:33:32;34.47;;;18.30;;
25449;SDS011;13371;52.080;5.624;2022-12-05T07:36:02;37.15;;;18.48;;
25449;SDS011;13371;52.080;5.624;2022-12-05T07:38:30;34.20;;;17.60;;
25449;SDS011;13371;52.080;5.624;2022-12-05T07:40:56;37.30;;;19.80;;
25449;SDS011;13371;52.080;5.624;2022-12-05T07:43:21;33.15;;;18.05;;
25449;SDS011;13371;52.080;5.624;2022-12-05T07:45:47;34.30;;;17.90;;
25449;SDS011;13371;52.080;5.624;2022-12-05T07:48:13;36.90;;;18.90;;
25449;SDS011;13371;52.080;5.624;2022-12-05T07:50:39;37.15;;;18.33;;
25449;SDS011;13371;52.080;5.624;2022-12-05T07:53:04;38.65;;;18.48;;
25449;SDS011;13371;52.080;5.624;2022-12-05T07:55:30;38.30;;;19.15;;
25449;SDS011;13371;52.080;5.624;2022-12-05T07:57:55;39.25;;;19.42;;
25449;SDS011;13371;52.080;5.624;2022-12-05T08:00:21;33.00;;;18.67;;
25449;SDS011;13371;52.080;5.624;2022-12-05T08:02:47;36.55;;;18.10;;
25449;SDS011;13371;52.080;5.624;2022-12-05T08:05:12;44.13;;;19.42;;
25449;SDS011;13371;52.080;5.624;2022-12-05T08:07:39;39.63;;;19.17;;
25449;SDS011;13371;52.080;5.624;2022-12-05T08:10:05;35.15;;;17.23;;
25449;SDS011;13371;52.080;5.624;2022-12-05T08:12:31;32.83;;;16.35;;
25449;SDS011;13371;52.080;5.624;2022-12-05T08:14:57;41.97;;;17.75;;
25449;SDS011;13371;52.080;5.624;2022-12-05T08:17:22;34.35;;;17.88;;
25449;SDS011;13371;52.080;5.624;2022-12-05T08:19:48;31.40;;;17.30;;
25449;SDS011;13371;52.080;5.624;2022-12-05T08:22:13;30.98;;;16.75;;
25449;SDS011;13371;52.080;5.624;2022-12-05T08:24:39;34.00;;;16.70;;
25449;SDS011;13371;52.080;5.624;2022-12-05T08:27:04;35.15;;;17.38;;
25449;SDS011;13371;52.080;5.624;2022-12-05T08:29:30;38.30;;;19.50;;
25449;SDS011;13371;52.080;5.624;2022-12-05T08:31:55;40.90;;;21.10;;
25449;SDS011;13371;52.080;5.624;2022-12-05T08:34:21;36.03;;;18.38;;
25449;SDS011;13371;52.080;5.624;2022-12-05T08:36:47;36.30;;;18.77;;
25449;SDS011;13371;52.080;5.624;2022-12-05T08:39:14;38.72;;;18.10;;
25449;SDS011;13371;52.080;5.624;2022-12-05T08:41:42;40.63;;;20.00;;
25449;SDS011;13371;52.080;5.624;2022-12-05T08:44:09;35.85;;;17.83;;
25449;SDS011;13371;52.080;5.624;2022-12-05T08:46:40;33.90;;;18.27;;
25449;SDS011;13371;52.080;5.624;2022-12-05T08:49:06;39.80;;;18.45;;
25449;SDS011;13371;52.080;5.624;2022-12-05T08:51:32;37.38;;;20.00;;
25449;SDS011;13371;52.080;5.624;2022-12-05T08:53:58;34.88;;;18.55;;
25449;SDS011;13371;52.080;5.624;2022-12-05T08:56:26;39.20;;;18.25;;
25449;SDS011;13371;52.080;5.624;2022-12-05T08:58:52;36.97;;;17.20;;
25449;SDS011;13371;52.080;5.624;2022-12-05T09:01:18;32.45;;;17.65;;
25449;SDS011;13371;52.080;5.624;2022-12-05T09:03:45;38.65;;;17.70;;
25449;SDS011;13371;52.080;5.624;2022-12-05T09:08:48;34.45;;;17.30;;
25449;SDS011;13371;52.080;5.624;2022-12-05T09:11:18;34.40;;;18.30;;
25449;SDS011;13371;52.080;5.624;2022-12-05T09:13:48;39.80;;;20.27;;
25449;SDS011;13371;52.080;5.624;2022-12-05T09:16:16;34.15;;;18.67;;
25449;SDS011;13371;52.080;5.624;2022-12-05T09:18:42;37.15;;;18.95;;
25449;SDS011;13371;52.080;5.624;2022-12-05T09:21:09;32.85;;;17.60;;
25449;SDS011;13371;52.080;5.624;2022-12-05T09:23:40;36.90;;;18.20;;
25449;SDS011;13371;52.080;5.624;2022-12-05T09:26:06;34.72;;;17.42;;
25449;SDS011;13371;52.080;5.624;2022-12-05T09:28:35;36.10;;;18.02;;
25449;SDS011;13371;52.080;5.624;2022-12-05T09:31:03;34.20;;;17.75;;
25449;SDS011;13371;52.080;5.624;2022-12-05T09:33:31;39.88;;;17.75;;
25449;SDS011;13371;52.080;5.624;2022-12-05T09:36:01;36.50;;;17.48;;
25449;SDS011;13371;52.080;5.624;2022-12-05T09:38:31;32.75;;;16.70;;
25449;SDS011;13371;52.080;5.624;2022-12-05T09:44:12;36.28;;;17.70;;
25449;SDS011;13371;52.080;5.624;2022-12-05T09:47:14;31.17;;;16.05;;
25449;SDS011;13371;52.080;5.624;2022-12-05T09:50:11;36.65;;;17.20;;
25449;SDS011;13371;52.080;5.624;2022-12-05T09:55:29;33.28;;;17.55;;
25449;SDS011;13371;52.080;5.624;2022-12-05T10:11:57;29.23;;;16.40;;
25449;SDS011;13371;52.080;5.624;2022-12-05T10:14:47;31.45;;;16.65;;
25449;SDS011;13371;52.080;5.624;2022-12-05T10:17:24;30.38;;;16.95;;
25449;SDS011;13371;52.080;5.624;2022-12-05T10:19:59;34.38;;;16.40;;
25449;SDS011;13371;52.080;5.624;2022-12-05T10:22:39;36.15;;;17.05;;
25449;SDS011;13371;52.080;5.624;2022-12-05T10:25:11;37.05;;;19.10;;
25449;SDS011;13371;52.080;5.624;2022-12-05T10:27:42;30.27;;;16.33;;
25449;SDS011;13371;52.080;5.624;2022-12-05T10:30:15;31.25;;;16.08;;
25449;SDS011;13371;52.080;5.624;2022-12-05T10:32:52;27.58;;;14.95;;
25449;SDS011;13371;52.080;5.624;2022-12-05T10:35:29;25.50;;;14.35;;
25449;SDS011;13371;52.080;5.624;2022-12-05T10:38:15;31.40;;;14.98;;
25449;SDS011;13371;52.080;5.624;2022-12-05T10:40:44;39.75;;;15.18;;
25449;SDS011;13371;52.080;5.624;2022-12-05T10:43:22;32.33;;;15.10;;
25449;SDS011;13371;52.080;5.624;2022-12-05T10:45:49;31.90;;;16.67;;
25449;SDS011;13371;52.080;5.624;2022-12-05T10:48:16;25.13;;;14.38;;
25449;SDS011;13371;52.080;5.624;2022-12-05T10:50:43;30.30;;;15.02;;
25449;SDS011;13371;52.080;5.624;2022-12-05T10:53:14;27.98;;;15.57;;
25449;SDS011;13371;52.080;5.624;2022-12-05T10:55:44;26.48;;;14.02;;
25449;SDS011;13371;52.080;5.624;2022-12-05T10:58:15;24.83;;;14.40;;
25449;SDS011;13371;52.080;5.624;2022-12-05T11:00:48;25.77;;;13.80;;
25449;SDS011;13371;52.080;5.624;2022-12-05T11:03:21;25.38;;;13.65;;
25449;SDS011;13371;52.080;5.624;2022-12-05T11:05:51;22.42;;;13.43;;
25449;SDS011;13371;52.080;5.624;2022-12-05T11:08:24;23.88;;;13.55;;
25449;SDS011;13371;52.080;5.624;2022-12-05T11:10:59;22.48;;;12.50;;
25449;SDS011;13371;52.080;5.624;2022-12-05T11:13:26;22.40;;;12.30;;
25449;SDS011;13371;52.080;5.624;2022-12-05T11:15:52;23.70;;;13.05;;
25449;SDS011;13371;52.080;5.624;2022-12-05T11:18:26;21.52;;;12.27;;
25449;SDS011;13371;52.080;5.624;2022-12-05T11:20:54;19.77;;;12.18;;
25449;SDS011;13371;52.080;5.624;2022-12-05T11:23:22;21.50;;;12.18;;
25449;SDS011;13371;52.080;5.624;2022-12-05T11:25:49;21.52;;;12.90;;
25449;SDS011;13371;52.080;5.624;2022-12-05T11:30:55;22.35;;;13.00;;
25449;SDS011;13371;52.080;5.624;2022-12-05T11:33:23;19.88;;;12.07;;
25449;SDS011;13371;52.080;5.624;2022-12-05T11:35:51;21.17;;;12.40;;
25449;SDS011;13371;52.080;5.624;2022-12-05T11:38:26;19.10;;;11.65;;
25449;SDS011;13371;52.080;5.624;2022-12-05T11:41:07;22.73;;;12.55;;
25449;SDS011;13371;52.080;5.624;2022-12-05T11:43:54;22.77;;;13.18;;
25449;SDS011;13371;52.080;5.624;2022-12-05T11:58:37;11.93;;;8.25;;
25449;SDS011;13371;52.080;5.624;2022-12-05T12:06:54;11.48;;;7.35;;
25449;SDS011;13371;52.080;5.624;2022-12-05T12:09:43;11.30;;;7.25;;
25449;SDS011;13371;52.080;5.624;2022-12-05T12:12:36;9.13;;;6.32;;
25449;SDS011;13371;52.080;5.624;2022-12-05T12:15:15;9.88;;;6.50;;
25449;SDS011;13371;52.080;5.624;2022-12-05T12:18:21;9.10;;;6.28;;
25449;SDS011;13371;52.080;5.624;2022-12-05T12:21:09;9.38;;;5.72;;
25449;SDS011;13371;52.080;5.624;2022-12-05T12:29:59;9.20;;;4.85;;
25449;SDS011;13371;52.080;5.624;2022-12-05T12:32:31;7.65;;;4.80;;
25449;SDS011;13371;52.080;5.624;2022-12-05T12:35:30;10.60;;;4.78;;
25449;SDS011;13371;52.080;5.624;2022-12-05T12:46:49;7.65;;;4.55;;
25449;SDS011;13371;52.080;5.624;2022-12-05T12:49:48;8.63;;;4.45;;
25449;SDS011;13371;52.080;5.624;2022-12-05T12:52:28;6.47;;;4.18;;
25449;SDS011;13371;52.080;5.624;2022-12-05T12:55:20;7.13;;;4.40;;
25449;SDS011;13371;52.080;5.624;2022-12-05T12:58:02;6.20;;;4.00;;
25449;SDS011;13371;52.080;5.624;2022-12-05T13:00:46;6.93;;;3.88;;
25449;SDS011;13371;52.080;5.624;2022-12-05T13:05:47;7.03;;;4.05;;
25449;SDS011;13371;52.080;5.624;2022-12-05T13:10:50;8.10;;;4.72;;
25449;SDS011;13371;52.080;5.624;2022-12-05T13:13:21;7.07;;;4.63;;
25449;SDS011;13371;52.080;5.624;2022-12-05T13:15:54;6.85;;;4.50;;
25449;SDS011;13371;52.080;5.624;2022-12-05T13:18:23;6.20;;;4.10;;
25449;SDS011;13371;52.080;5.624;2022-12-05T13:20:53;5.18;;;3.25;;
25449;SDS011;13371;52.080;5.624;2022-12-05T13:23:27;6.35;;;4.40;;
25449;SDS011;13371;52.080;5.624;2022-12-05T13:25:56;9.23;;;4.28;;
25449;SDS011;13371;52.080;5.624;2022-12-05T13:28:27;6.78;;;4.18;;
25449;SDS011;13371;52.080;5.624;2022-12-05T13:31:05;7.03;;;3.78;;
25449;SDS011;13371;52.080;5.624;2022-12-05T13:33:41;6.20;;;3.83;;
25449;SDS011;13371;52.080;5.624;2022-12-05T13:36:13;9.45;;;4.13;;
25449;SDS011;13371;52.080;5.624;2022-12-05T13:39:05;6.85;;;3.80;;
25449;SDS011;13371;52.080;5.624;2022-12-05T13:41:56;6.43;;;3.65;;
25449;SDS011;13371;52.080;5.624;2022-12-05T13:44:44;6.75;;;3.60;;
25449;SDS011;13371;52.080;5.624;2022-12-05T13:47:24;5.13;;;3.42;;
25449;SDS011;13371;52.080;5.624;2022-12-05T13:49:51;5.55;;;3.85;;
25449;SDS011;13371;52.080;5.624;2022-12-05T13:52:31;5.78;;;3.33;;
25449;SDS011;13371;52.080;5.624;2022-12-05T13:58:01;7.57;;;4.28;;
25449;SDS011;13371;52.080;5.624;2022-12-05T14:00:50;6.32;;;4.10;;
25449;SDS011;13371;52.080;5.624;2022-12-05T14:17:28;9.40;;;5.10;;
25449;SDS011;13371;52.080;5.624;2022-12-05T14:19:58;8.90;;;4.60;;
25449;SDS011;13371;52.080;5.624;2022-12-05T14:31:23;7.43;;;3.88;;
25449;SDS011;13371;52.080;5.624;2022-12-05T14:34:12;7.47;;;4.20;;
25449;SDS011;13371;52.080;5.624;2022-12-05T14:42:19;9.15;;;4.70;;
25449;SDS011;13371;52.080;5.624;2022-12-05T14:44:48;7.60;;;4.10;;
25449;SDS011;13371;52.080;5.624;2022-12-05T14:47:19;6.32;;;4.05;;
25449;SDS011;13371;52.080;5.624;2022-12-05T14:49:52;6.90;;;4.07;;
25449;SDS011;13371;52.080;5.624;2022-12-05T14:52:44;8.35;;;4.63;;
25449;SDS011;13371;52.080;5.624;2022-12-05T14:55:39;9.32;;;4.60;;
25449;SDS011;13371;52.080;5.624;2022-12-05T14:58:09;8.60;;;4.30;;
25449;SDS011;13371;52.080;5.624;2022-12-05T15:00:59;12.10;;;4.40;;
25449;SDS011;13371;52.080;5.624;2022-12-05T15:03:37;6.13;;;3.95;;
25449;SDS011;13371;52.080;5.624;2022-12-05T15:06:09;6.00;;;3.50;;
25449;SDS011;13371;52.080;5.624;2022-12-05T15:11:12;7.50;;;3.75;;
25449;SDS011;13371;52.080;5.624;2022-12-05T15:13:52;8.75;;;4.25;;
25449;SDS011;13371;52.080;5.624;2022-12-05T15:16:45;8.27;;;3.70;;
25449;SDS011;13371;52.080;5.624;2022-12-05T15:19:19;5.93;;;3.90;;
25449;SDS011;13371;52.080;5.624;2022-12-05T15:21:53;5.50;;;3.83;;
25449;SDS011;13371;52.080;5.624;2022-12-05T15:24:22;6.22;;;3.15;;
25449;SDS011;13371;52.080;5.624;2022-12-05T15:26:51;7.45;;;4.63;;
25449;SDS011;13371;52.080;5.624;2022-12-05T15:31:52;7.53;;;4.13;;
25449;SDS011;13371;52.080;5.624;2022-12-05T15:34:26;8.07;;;3.70;;
25449;SDS011;13371;52.080;5.624;2022-12-05T15:37:02;7.05;;;3.70;;
25449;SDS011;13371;52.080;5.624;2022-12-05T15:39:48;6.13;;;3.95;;
25449;SDS011;13371;52.080;5.624;2022-12-05T15:42:28;8.23;;;4.30;;
25449;SDS011;13371;52.080;5.624;2022-12-05T15:50:12;8.07;;;4.25;;
25449;SDS011;13371;52.080;5.624;2022-12-05T15:55:43;7.95;;;4.60;;
25449;SDS011;13371;52.080;5.624;2022-12-05T16:01:41;9.05;;;4.75;;
25449;SDS011;13371;52.080;5.624;2022-12-05T16:04:04;9.48;;;4.60;;
25449;SDS011;13371;52.080;5.624;2022-12-05T16:06:47;7.57;;;4.30;;
25449;SDS011;13371;52.080;5.624;2022-12-05T16:09:22;8.02;;;4.60;;
25449;SDS011;13371;52.080;5.624;2022-12-05T16:11:59;8.63;;;4.45;;
25449;SDS011;13371;52.080;5.624;2022-12-05T16:14:29;7.38;;;4.45;;
25449;SDS011;13371;52.080;5.624;2022-12-05T16:16:58;7.93;;;4.82;;
25449;SDS011;13371;52.080;5.624;2022-12-05T16:19:25;7.00;;;4.40;;
25449;SDS011;13371;52.080;5.624;2022-12-05T16:21:59;8.90;;;4.82;;
25449;SDS011;13371;52.080;5.624;2022-12-05T16:24:56;6.90;;;4.40;;
25449;SDS011;13371;52.080;5.624;2022-12-05T16:27:25;7.50;;;4.75;;
25449;SDS011;13371;52.080;5.624;2022-12-05T16:30:16;7.50;;;4.95;;
25449;SDS011;13371;52.080;5.624;2022-12-05T16:32:45;7.25;;;4.25;;
25449;SDS011;13371;52.080;5.624;2022-12-05T16:35:29;6.72;;;4.28;;
25449;SDS011;13371;52.080;5.624;2022-12-05T16:40:37;7.97;;;3.90;;
25449;SDS011;13371;52.080;5.624;2022-12-05T16:43:06;7.65;;;4.85;;
25449;SDS011;13371;52.080;5.624;2022-12-05T16:45:44;8.30;;;4.47;;
25449;SDS011;13371;52.080;5.624;2022-12-05T16:48:21;18.85;;;9.52;;
25449;SDS011;13371;52.080;5.624;2022-12-05T16:50:47;15.70;;;7.63;;
25449;SDS011;13371;52.080;5.624;2022-12-05T16:53:18;13.75;;;7.28;;
25449;SDS011;13371;52.080;5.624;2022-12-05T16:55:46;12.50;;;6.65;;
25449;SDS011;13371;52.080;5.624;2022-12-05T16:58:22;8.63;;;5.30;;
25449;SDS011;13371;52.080;5.624;2022-12-05T17:00:49;6.75;;;4.53;;
25449;SDS011;13371;52.080;5.624;2022-12-05T17:03:16;10.43;;;4.95;;
25449;SDS011;13371;52.080;5.624;2022-12-05T17:05:42;9.95;;;4.85;;
25449;SDS011;13371;52.080;5.624;2022-12-05T17:08:07;7.60;;;4.45;;
25449;SDS011;13371;52.080;5.624;2022-12-05T17:10:33;9.52;;;4.35;;
25449;SDS011;13371;52.080;5.624;2022-12-05T17:12:58;8.02;;;4.93;;
25449;SDS011;13371;52.080;5.624;2022-12-05T17:15:25;10.73;;;5.50;;
25449;SDS011;13371;52.080;5.624;2022-12-05T17:17:51;11.23;;;5.18;;
25449;SDS011;13371;52.080;5.624;2022-12-05T17:20:17;12.00;;;5.85;;
25449;SDS011;13371;52.080;5.624;2022-12-05T17:22:42;10.73;;;6.20;;
25449;SDS011;13371;52.080;5.624;2022-12-05T17:25:19;9.75;;;5.72;;
25449;SDS011;13371;52.080;5.624;2022-12-05T17:27:52;10.68;;;5.68;;
25449;SDS011;13371;52.080;5.624;2022-12-05T17:30:18;9.95;;;5.70;;
25449;SDS011;13371;52.080;5.624;2022-12-05T17:32:43;10.00;;;5.55;;